Radar AviationWeather DUATS TFRs Wunderground Accuweather Weather.com

alt : Radar

TAFs

KDTW 010521Z 0106/0212 07007KT P6SM SCT150
   FM011400 12007KT P6SM BKN150
   FM012200 15010KT 6SM -SHRA OVC070
   FM020100 18007KT 3SM SHRA OVC040
   FM020700 24007KT P6SM OVC035
KCLE 010337Z 0104/0206 04008KT P6SM SCT250
   FM011500 10008KT P6SM BKN250
KJXN 312340Z 0100/0124 11005KT P6SM BKN250
   FM011500 13006KT P6SM BKN070
   FM012000 18008KT P6SM VCTS BKN050CB
KFWA 312339Z 0100/0124 08010KT P6SM VCSH SCT040 BKN080
   FM010500 11006KT P6SM SCT080 BKN250
   FM012100 23010KT P6SM VCTS BKN040CB
KFDY 312322Z 0100/0124 04010G18KT P6SM BKN250
   FM010200 06006KT P6SM SCT250
   FM011500 12008KT P6SM BKN150
KTOL 312322Z 0100/0124 06010KT P6SM BKN250
   FM010200 06005KT P6SM SCT250
   FM011500 10008KT P6SM BKN150

METARs

KDUH 010514Z AUTO 00000KT 10SM CLR 17/13 A3007 RMK AO2 T01650127
KJXN 010456Z AUTO 00000KT 10SM CLR 16/08 A3007 RMK AO2 SLP178 T01610078 402830111
KFWA 010454Z 04003KT 10SM BKN090 BKN120 19/09 A3002 RMK AO2 SLP160 T01890094 403000150
KDTW 010453Z 04007KT 10SM SCT250 17/07 A3006 RMK AO2 SLP174 T01670072 402830167
KFDY 010453Z AUTO 08007KT 10SM CLR 20/08 A3002 RMK AO2 SLP158 T02000083 403000167
KTDZ 010453Z AUTO 16003KT 10SM CLR 17/12 A3006 RMK AO2 SLP174 T01720122 402830161
KTOL 010452Z 05003KT 10SM CLR 17/11 A3005 RMK AO2 SLP170 T01720111 402890139
KCLE 010451Z 07007KT 10SM BKN250 21/09 A3006 RMK AO2 SLP174 T02060089 402720156

alt : Satellite

alt : TFRs